»·PEaware :: N8833D YSSY-YPAD

N8833D :: YSSY-YPAD

FLIGHT INFORMATION

Flight Status: Arrived
Operator: Privately registered:
United States
More flights under this callsign
Pilot: Cooper L. (8467)
Aircraft: AIRBUS A330-200
(A332)
More flights by this aircraft type
Origin: YSSY Kingsford Smith Intl
Australia
Destination: YPAD Adelaide Intl
Australia
More flights between these airports :: More routes between these airports
Route: KAT
File this flight plan on PilotEdge
Remarks:
Altitude:
(Current/Filed)
39,000ft
Speed:
(Current/Filed)
480kts
Departed: 09-Oct-15 06:43 PM
Arrived: 09-Oct-15 08:21 PM
Distance/Time
Traveled:
628nm/1:37
Distance/Time
To Go:
Arrived

Flight Plot

Page will automatically refresh every two minutes.


Map Options




Map Legend


Flown Route
Filed Route
Departure Airport
Arrival Airport
Navaid (VOR, NDB)
Fix

Horizontal Profiles

Position Reports

Time Latitude Longitude Heading Altitude Ground
Speed
09-Oct-15 18:41 -33.749455 150.562950 276 23917ft 382kts
09-Oct-15 18:42 -33.731103 150.436236 275 26060ft 391kts
09-Oct-15 18:43 -33.712880 150.306208 269 27984ft 397kts
09-Oct-15 18:44 -33.721836 150.175294 262 30344ft 388kts
09-Oct-15 18:45 -33.732648 150.048529 261 32546ft 377kts
09-Oct-15 18:46 -33.743215 149.924814 261 34374ft 369kts
09-Oct-15 18:47 -33.753852 149.802599 261 35825ft 367kts
09-Oct-15 18:48 -33.808883 149.706548 224 36848ft 379kts
09-Oct-15 18:49 -33.894608 149.632221 222 37874ft 380kts
09-Oct-15 18:50 -33.981625 149.558167 223 38187ft 396kts
09-Oct-15 18:51 -34.074802 149.478736 223 38388ft 430kts
09-Oct-15 18:52 -34.170959 149.396679 223 38402ft 448kts
09-Oct-15 18:53 -34.272700 149.309484 223 38399ft 449kts
09-Oct-15 18:54 -34.372337 149.219759 236 38394ft 435kts
09-Oct-15 18:55 -34.378223 149.086198 281 38401ft 416kts
09-Oct-15 18:56 -34.350778 148.949737 281 38397ft 417kts
09-Oct-15 18:57 -34.336889 148.813015 254 38414ft 420kts
09-Oct-15 18:58 -34.386081 148.683524 249 38399ft 423kts
09-Oct-15 18:59 -34.435656 148.554379 249 38400ft 423kts
09-Oct-15 19:00 -34.484938 148.426219 249 38385ft 422kts
09-Oct-15 19:01 -34.534534 148.297506 249 38372ft 421kts
09-Oct-15 19:02 -34.584158 148.169749 249 38371ft 421kts
09-Oct-15 19:03 -34.634376 148.041283 248 38371ft 421kts
09-Oct-15 19:04 -34.682766 147.912098 254 38374ft 418kts
09-Oct-15 19:05 -34.720192 147.778621 254 38375ft 417kts
09-Oct-15 19:06 -34.752835 147.662662 254 38368ft 418kts
09-Oct-15 19:07 -34.790743 147.528171 254 38348ft 419kts
09-Oct-15 19:08 -34.828677 147.393934 254 38346ft 420kts
09-Oct-15 19:09 -34.866615 147.260021 254 38345ft 420kts
09-Oct-15 19:10 -34.904813 147.125528 254 38344ft 420kts
09-Oct-15 19:11 -34.942711 146.992661 254 38164ft 412kts
09-Oct-15 19:12 -34.980127 146.862139 254 37996ft 404kts
09-Oct-15 19:13 -35.017083 146.732639 254 38001ft 405kts
09-Oct-15 19:14 -35.054011 146.603552 254 38001ft 405kts
09-Oct-15 19:15 -35.089066 146.472904 254 38001ft 404kts
09-Oct-15 19:16 -35.124883 146.343168 254 38000ft 404kts
09-Oct-15 19:17 -35.160871 146.212965 254 38000ft 404kts
09-Oct-15 19:18 -35.196950 146.082755 254 38000ft 404kts
09-Oct-15 19:19 -35.232950 145.952454 256 37998ft 403kts
09-Oct-15 19:20 -35.255365 145.818847 261 38002ft 402kts
09-Oct-15 19:21 -35.277037 145.684677 261 38002ft 402kts
09-Oct-15 19:22 -35.298771 145.550826 260 38001ft 402kts
09-Oct-15 19:23 -35.320703 145.416446 260 38001ft 402kts
09-Oct-15 19:24 -35.342710 145.282303 260 38000ft 402kts
09-Oct-15 19:25 -35.365453 145.148837 259 38000ft 402kts
09-Oct-15 19:26 -35.394894 145.016384 256 38000ft 403kts
09-Oct-15 19:27 -35.428919 144.885263 253 38002ft 405kts
09-Oct-15 19:28 -35.466636 144.755147 254 38002ft 404kts
09-Oct-15 19:29 -35.504324 144.625328 253 38001ft 404kts
09-Oct-15 19:30 -35.542459 144.493564 253 37982ft 409kts
09-Oct-15 19:31 -35.581145 144.361987 253 38052ft 412kts
09-Oct-15 19:32 -35.611753 144.227185 276 38186ft 413kts
09-Oct-15 19:33 -35.559844 144.100272 279 38190ft 414kts
09-Oct-15 19:34 -35.561623 143.933472 268 38293ft 416kts
09-Oct-15 19:35 -35.568791 143.660200 268 38292ft 415kts
09-Oct-15 19:36 -35.576500 143.385204 268 38291ft 415kts
09-Oct-15 19:37 -35.575789 143.230298 271 38290ft 415kts
09-Oct-15 19:38 -35.572537 143.067887 270 38290ft 415kts
09-Oct-15 19:39 -35.567381 142.794179 271 38292ft 415kts
09-Oct-15 19:40 -35.564457 142.633878 271 38292ft 415kts
09-Oct-15 19:41 -35.562054 142.492908 270 38292ft 415kts
09-Oct-15 19:42 -35.559800 142.351295 270 38291ft 415kts
09-Oct-15 19:43 -35.557714 142.210400 270 38291ft 415kts
09-Oct-15 19:44 -35.555773 142.068535 270 38290ft 415kts
09-Oct-15 19:45 -35.554003 141.927524 270 38290ft 415kts
09-Oct-15 19:46 -35.552218 141.786038 270 38293ft 415kts
09-Oct-15 19:47 -35.550523 141.644893 270 38292ft 415kts
09-Oct-15 19:48 -35.548981 141.503405 270 38292ft 415kts
09-Oct-15 19:49 -35.547435 141.361794 272 38289ft 415kts
09-Oct-15 19:50 -35.528353 141.222111 275 38297ft 415kts
09-Oct-15 19:51 -35.514997 141.081259 275 38291ft 415kts
09-Oct-15 19:52 -35.501826 140.940492 274 38289ft 415kts
09-Oct-15 19:54 -35.479473 140.662922 274 38292ft 415kts
09-Oct-15 19:55 -35.468540 140.521969 274 38302ft 412kts
09-Oct-15 19:56 -35.457938 140.383711 274 36580ft 408kts
09-Oct-15 19:57 -35.447378 140.244576 274 33336ft 415kts
09-Oct-15 19:58 -35.438665 140.101702 271 29584ft 426kts
09-Oct-15 19:59 -35.434827 139.962417 271 27376ft 405kts
09-Oct-15 20:00 -35.431168 139.827306 271 24970ft 391kts
09-Oct-15 20:01 -35.427692 139.696649 271 22558ft 379kts
09-Oct-15 20:02 -35.428494 139.569818 264 20152ft 368kts
09-Oct-15 20:03 -35.428441 139.446297 271 17773ft 358kts
09-Oct-15 20:04 -35.424160 139.325993 272 15426ft 349kts
09-Oct-15 20:05 -35.386078 139.224763 328 13109ft 370kts
09-Oct-15 20:06 -35.292495 139.176342 332 11759ft 361kts
09-Oct-15 20:07 -35.202818 139.134379 333 10693ft 324kts
09-Oct-15 20:08 -35.124975 139.098437 333 10114ft 276kts
09-Oct-15 20:09 -35.059218 139.060104 314 9309ft 256kts
09-Oct-15 20:10 -35.006713 139.002185 317 8140ft 254kts
09-Oct-15 20:11 -34.956427 138.946085 318 7025ft 254kts
09-Oct-15 20:12 -34.904210 138.887677 319 5859ft 255kts
09-Oct-15 20:13 -34.863564 138.841732 319 4954ft 256kts
09-Oct-15 20:14 -34.810802 138.782805 319 3780ft 258kts
09-Oct-15 20:15 -34.810128 138.717232 205 3462ft 217kts
09-Oct-15 20:16 -34.848014 138.677193 230 2893ft 162kts
09-Oct-15 20:17 -34.875549 138.638148 230 2061ft 158kts
09-Oct-15 20:18 -34.903138 138.598025 231 1211ft 156kts
09-Oct-15 20:19 -34.930205 138.558553 231 398ft 154kts
09-Oct-15 20:20 -34.949211 138.530004 326 33ft 10kts
09-Oct-15 20:21 -34.946465 138.530968 20 33ft 19kts
09-Oct-15 20:22 -34.945113 138.532970 83 33ft 14kts
09-Oct-15 20:23 -34.941814 138.536584 33 33ft 10kts
09-Oct-15 20:24 -34.939451 138.539863 49 33ft 15kts
09-Oct-15 20:25 -34.938148 138.540369 319 33ft 8kts
09-Oct-15 20:26 -34.938080 138.540312 327 33ft 0kts
09-Oct-15 20:27 -34.938080 138.540312 327 33ft 0kts
09-Oct-15 20:28 -34.938080 138.540312 327 33ft 0kts
09-Oct-15 20:29 -34.938080 138.540312 327 33ft 0kts

Navigation Log

Ident Type
Flight plan parsing failed, navigation log unavailable